Time;durP1;ratioP1;P1;durP2;ratioP2;P2;SDS_P1;SDS_P2;PMS_P1;PMS_P2;Temp;Humidity;BMP_temperature;BMP_pressure;BME280_temperature;BME280_humidity;BME280_pressure;Samples;Min_cycle;Max_cycle;Signal;HPM_P1;HPM_P2
2021/05/14 00:00:01;;;;;;;;;;;;;;;21.47;58.14;100348.72;5132351;27;1339;-69
2021/05/14 00:02:46;;;;;;;;;;;;;;;21.48;58.21;100347.78;5116296;27;655;-69
2021/05/14 00:05:34;;;;;;;;;;;;;;;21.47;58.00;100351.38;5132134;27;1222;-70
2021/05/14 00:08:20;;;;;;;;;;;;;;;21.48;58.09;100357.50;5132430;27;693;-71
2021/05/14 00:11:05;;;;;;;;;;;;;;;21.47;58.61;100361.13;5131948;27;1258;-70
2021/05/14 00:13:53;;;;;;;;;;;;;;;21.46;58.37;100339.06;5116441;27;678;-70
2021/05/14 00:16:38;;;;;;;;;;;;;;;21.47;58.28;100334.63;5131178;27;1901;-70
2021/05/14 00:19:24;;;;;;;;;;;;;;;21.46;58.66;100330.31;5132231;27;647;-70
2021/05/14 00:22:09;;;;;;;;;;;;;;;21.45;58.37;100315.34;5116245;27;1283;-70
2021/05/14 00:24:54;;;;;;;;;;;;;;;21.45;58.53;100315.34;5132435;27;1334;-70
2021/05/14 00:27:41;;;;;;;;;;;;;;;21.46;58.25;100311.75;5131614;27;678;-70
2021/05/14 00:30:26;;;;;;;;;;;;;;;21.46;58.46;100322.34;5131603;27;1313;-70
2021/05/14 00:33:12;;;;;;;;;;;;;;;21.46;58.53;100309.09;5131640;27;638;-71
2021/05/14 00:35:57;;;;;;;;;;;;;;;21.45;58.63;100313.56;5131839;27;1910;-70
2021/05/14 00:38:43;;;;;;;;;;;;;;;21.45;58.61;100323.28;5131422;27;659;-70
2021/05/14 00:41:28;;;;;;;;;;;;;;;21.45;58.61;100310.06;5131751;27;1260;-70
2021/05/14 00:44:32;;;;;;;;;;;;;;;21.44;58.80;100311.84;5131591;27;612;-71
2021/05/14 00:47:18;;;;;;;;;;;;;;;21.44;59.16;100318.94;5131118;27;1315;-71
2021/05/14 00:50:04;;;;;;;;;;;;;;;21.44;58.73;100319.78;5131335;27;1621;-69
2021/05/14 00:52:49;;;;;;;;;;;;;;;21.44;58.84;100305.69;5131817;27;635;-70
2021/05/14 00:55:34;;;;;;;;;;;;;;;21.44;58.89;100306.56;5130852;27;1918;-70
2021/05/14 00:58:20;;;;;;;;;;;;;;;21.43;59.04;100310.16;5131326;27;635;-70
2021/05/14 01:01:05;;;;;;;;;;;;;;;21.44;58.92;100308.34;5116178;27;1239;-71
2021/05/14 01:03:50;;;;;;;;;;;;;;;21.44;58.82;100300.41;5132019;27;734;-72
2021/05/14 01:06:36;;;;;;;;;;;;;;;21.43;58.77;100296.09;5131356;27;1323;-71
2021/05/14 01:09:21;;;;;;;;;;;;;;;21.43;58.91;100302.19;5131181;27;651;-71
2021/05/14 01:12:08;;;;;;;;;;;;;;;21.43;59.10;100301.38;5131484;27;1212;-71
2021/05/14 01:14:57;;;;;;;;;;;;;;;21.43;58.93;100291.59;5116376;27;1985;-69
2021/05/14 01:17:42;;;;;;;;;;;;;;;21.43;58.96;100299.56;5131027;27;627;-69
2021/05/14 01:20:29;;;;;;;;;;;;;;;21.43;58.85;100290.78;5130664;27;1259;-69
2021/05/14 01:23:14;;;;;;;;;;;;;;;21.43;59.29;100290.78;5130719;27;679;-70
2021/05/14 01:26:00;;;;;;;;;;;;;;;21.42;59.22;100297.03;5131014;27;1369;-71
2021/05/14 01:28:45;;;;;;;;;;;;;;;21.44;58.97;100287.16;5130760;27;690;-69
2021/05/14 01:31:31;;;;;;;;;;;;;;;21.41;59.05;100282.94;5130749;27;1279;-70
2021/05/14 01:34:16;;;;;;;;;;;;;;;21.43;59.29;100293.44;5130465;27;658;-71
2021/05/14 01:37:02;;;;;;;;;;;;;;;21.42;58.90;100289.09;5130579;27;1977;-70
2021/05/14 01:39:47;;;;;;;;;;;;;;;21.41;59.22;100297.97;5115367;27;1057;-69
2021/05/14 01:42:33;;;;;;;;;;;;;;;21.42;59.25;100297.03;5115220;27;798;-70
2021/05/14 01:45:18;;;;;;;;;;;;;;;21.41;59.42;100297.97;5130154;27;1328;-69
2021/05/14 01:48:04;;;;;;;;;;;;;;;21.41;59.17;100295.34;5115171;27;663;-69
2021/05/14 01:50:49;;;;;;;;;;;;;;;21.41;59.07;100295.34;5131282;27;1490;-70
2021/05/14 01:53:35;;;;;;;;;;;;;;;21.41;59.09;100290.03;5135193;27;651;-70
2021/05/14 01:56:21;;;;;;;;;;;;;;;21.40;59.45;100291.00;5116484;27;1961;-69
2021/05/14 01:59:06;;;;;;;;;;;;;;;21.41;59.22;100282.09;5150990;27;619;-70
2021/05/14 02:01:51;;;;;;;;;;;;;;;21.40;59.11;100291.00;5151248;27;1337;-70
2021/05/14 02:04:37;;;;;;;;;;;;;;;21.41;59.09;100300.63;5150614;27;619;-69
2021/05/14 02:07:23;;;;;;;;;;;;;;;21.40;59.26;100304.25;5129737;27;725;-70
2021/05/14 02:10:08;;;;;;;;;;;;;;;21.40;59.28;100297.13;5130404;27;1251;-69
2021/05/14 02:12:54;;;;;;;;;;;;;;;21.40;59.36;100296.31;5129907;27;671;-70
2021/05/14 02:15:40;;;;;;;;;;;;;;;21.40;59.52;100296.31;5129683;27;1878;-69
2021/05/14 02:18:25;;;;;;;;;;;;;;;21.40;59.46;100291.00;5130494;27;595;-69
2021/05/14 02:21:10;;;;;;;;;;;;;;;21.39;59.46;100297.25;5130031;27;1346;-69
2021/05/14 02:23:55;;;;;;;;;;;;;;;21.39;59.22;100287.50;5130436;28;667;-71
2021/05/14 02:26:41;;;;;;;;;;;;;;;21.39;59.59;100284.88;5130392;28;1275;-69
2021/05/14 02:29:26;;;;;;;;;;;;;;;21.38;59.29;100285.81;5114230;28;664;-69
2021/05/14 02:32:11;;;;;;;;;;;;;;;21.39;59.16;100284.88;5129897;28;1362;-70
2021/05/14 02:34:57;;;;;;;;;;;;;;;21.38;59.46;100285.81;5130053;28;1926;-71
2021/05/14 02:37:42;;;;;;;;;;;;;;;21.39;59.54;100281.38;5129994;28;717;-71
2021/05/14 02:40:27;;;;;;;;;;;;;;;21.38;59.30;100284.97;5129699;28;1231;-69
2021/05/14 02:43:12;;;;;;;;;;;;;;;21.39;59.27;100294.63;5114115;28;651;-71
2021/05/14 02:45:58;;;;;;;;;;;;;;;21.39;59.44;100297.25;5129611;28;1254;-72
2021/05/14 02:48:43;;;;;;;;;;;;;;;21.38;59.39;100282.31;5129501;28;1511;-71
2021/05/14 02:51:28;;;;;;;;;;;;;;;21.39;59.46;100284.00;5129637;28;1243;-72
2021/05/14 02:54:14;;;;;;;;;;;;;;;21.37;59.57;100291.25;5129377;28;624;-71
2021/05/14 02:56:59;;;;;;;;;;;;;;;21.38;59.69;100287.59;5113790;28;1906;-72
2021/05/14 02:59:45;;;;;;;;;;;;;;;21.37;59.33;100288.59;5129346;28;1123;-71
2021/05/14 03:02:30;;;;;;;;;;;;;;;21.38;59.38;100292.91;5130634;27;643;-70
2021/05/14 03:05:16;;;;;;;;;;;;;;;21.37;59.28;100288.59;5133462;27;1356;-70
2021/05/14 03:08:01;;;;;;;;;;;;;;;21.37;59.29;100291.25;5133307;27;711;-69
2021/05/14 03:10:46;;;;;;;;;;;;;;;21.36;59.51;100290.38;5117770;27;1268;-69
2021/05/14 03:13:32;;;;;;;;;;;;;;;21.37;59.26;100299.19;5132892;27;682;-72
2021/05/14 03:16:17;;;;;;;;;;;;;;;21.36;59.49;100301.00;5134006;27;1988;-71
2021/05/14 03:19:03;;;;;;;;;;;;;;;21.35;59.49;100303.75;5134135;27;586;-69
2021/05/14 03:21:49;;;;;;;;;;;;;;;21.36;59.42;100305.44;5118160;27;1362;-72
2021/05/14 03:24:34;;;;;;;;;;;;;;;21.35;59.43;100304.59;5117722;27;722;-71
2021/05/14 03:27:19;;;;;;;;;;;;;;;21.34;59.50;100302.88;5133134;27;706;-71
2021/05/14 03:30:05;;;;;;;;;;;;;;;21.34;59.45;100291.47;5117944;27;1254;-70
2021/05/14 03:32:50;;;;;;;;;;;;;;;21.34;59.63;100300.25;5133328;27;667;-71
2021/05/14 03:35:36;;;;;;;;;;;;;;;21.35;59.58;100315.19;5117742;27;1977;-70
2021/05/14 03:38:28;;;;;;;;;;;;;;;21.35;59.65;100309.03;5116910;27;706;-70
2021/05/14 03:41:33;;;;;;;;;;;;;;;21.35;59.43;100307.25;5133538;27;1252;-69
2021/05/14 03:44:19;;;;;;;;;;;;;;;21.36;59.63;100308.09;5133191;27;694;-71
2021/05/14 03:47:05;;;;;;;;;;;;;;;21.33;59.53;100314.47;5117713;27;1239;-71
2021/05/14 03:49:53;;;;;;;;;;;;;;;21.33;59.68;100310.97;5117901;27;1473;-71
2021/05/14 03:52:38;;;;;;;;;;;;;;;21.33;59.67;100309.16;5117502;27;651;-71
2021/05/14 03:55:24;;;;;;;;;;;;;;;21.33;59.48;100303.03;5117244;27;1926;-71
2021/05/14 03:58:09;;;;;;;;;;;;;;;21.33;59.51;100300.38;5133069;27;831;-70
2021/05/14 04:00:54;;;;;;;;;;;;;;;21.33;59.42;100300.38;5133183;27;1263;-70
2021/05/14 04:03:40;;;;;;;;;;;;;;;21.33;59.61;100313.63;5132716;27;686;-71
2021/05/14 04:06:25;;;;;;;;;;;;;;;21.34;59.59;100310.00;5132719;27;1345;-71
2021/05/14 04:09:11;;;;;;;;;;;;;;;21.34;59.75;100323.25;5137020;27;1513;-72
2021/05/14 04:14:44;;;;;;;;;;;;;;;21.33;59.49;100329.50;5131207;27;928;-71
2021/05/14 04:17:44;;;;;;;;;;;;;;;21.33;59.61;100337.47;5132356;27;865;-70
2021/05/14 04:20:29;;;;;;;;;;;;;;;21.32;59.60;100341.06;5132950;27;1328;-70
2021/05/14 04:23:16;;;;;;;;;;;;;;;21.33;59.46;100340.09;5132373;27;683;-71
2021/05/14 04:26:01;;;;;;;;;;;;;;;21.32;59.55;100346.34;5132569;27;1262;-71
2021/05/14 04:28:46;;;;;;;;;;;;;;;21.32;59.43;100354.31;5132552;27;631;-71
2021/05/14 04:31:32;;;;;;;;;;;;;;;21.32;59.46;100351.66;5131491;27;1266;-71
2021/05/14 04:34:18;;;;;;;;;;;;;;;21.32;59.54;100349.00;5116474;27;726;-71
2021/05/14 04:37:06;;;;;;;;;;;;;;;21.32;59.53;100336.59;5132782;27;1984;-70
2021/05/14 04:39:51;;;;;;;;;;;;;;;21.31;59.47;100326.97;5131855;27;1042;-70
2021/05/14 04:42:37;;;;;;;;;;;;;;;21.31;59.63;100336.75;5132225;27;867;-70
2021/05/14 04:45:27;;;;;;;;;;;;;;;21.31;59.51;100337.56;5132380;27;1272;-71
2021/05/14 04:48:12;;;;;;;;;;;;;;;21.31;59.86;100356.09;5132046;27;806;-71
2021/05/14 04:50:58;;;;;;;;;;;;;;;21.30;59.94;100365.03;5111704;28;1263;-70
2021/05/14 04:53:44;;;;;;;;;;;;;;;21.31;59.68;100360.59;5111014;28;666;-71
2021/05/14 04:56:29;;;;;;;;;;;;;;;21.31;59.69;100365.88;5111426;28;1901;-71
2021/05/14 04:59:15;;;;;;;;;;;;;;;21.31;59.83;100360.59;5095958;28;657;-69
2021/05/14 05:02:00;;;;;;;;;;;;;;;21.30;60.02;100353.56;5111020;28;1267;-71
2021/05/14 05:04:47;;;;;;;;;;;;;;;21.31;59.87;100355.28;5110771;28;941;-72
2021/05/14 05:07:32;;;;;;;;;;;;;;;21.30;59.61;100364.19;5110477;28;639;-71
2021/05/14 05:10:20;;;;;;;;;;;;;;;21.30;59.85;100370.31;5110711;28;1248;-69
2021/05/14 05:13:06;;;;;;;;;;;;;;;21.30;59.81;100385.38;5111707;27;1436;-73
2021/05/14 05:15:51;;;;;;;;;;;;;;;21.31;59.70;100389.72;5109149;28;1996;-71
2021/05/14 05:18:37;;;;;;;;;;;;;;;21.32;59.81;100391.38;5093409;28;656;-72
2021/05/14 05:21:22;;;;;;;;;;;;;;;21.31;59.75;100409.09;5109882;28;1361;-73
2021/05/14 05:24:08;;;;;;;;;;;;;;;21.31;59.87;100418.88;5109555;28;623;-73
2021/05/14 05:26:54;;;;;;;;;;;;;;;21.31;59.72;100418.88;5108279;28;1374;-70
2021/05/14 05:29:39;;;;;;;;;;;;;;;21.31;60.07;100421.50;5109583;28;619;-74
2021/05/14 05:32:25;;;;;;;;;;;;;;;21.29;60.05;100431.34;5109706;28;647;-71
2021/05/14 05:35:10;;;;;;;;;;;;;;;21.27;60.12;100428.84;5093731;28;1429;-73
2021/05/14 05:37:56;;;;;;;;;;;;;;;21.32;60.14;100436.44;5109188;28;1953;-70
2021/05/14 05:40:41;;;;;;;;;;;;;;;21.30;60.08;100441.00;5109435;28;1350;-74
2021/05/14 05:43:26;;;;;;;;;;;;;;;21.31;60.42;100456.78;5109383;28;670;-75
2021/05/14 05:46:12;;;;;;;;;;;;;;;21.32;60.37;100457.63;5109462;28;1314;-75
2021/05/14 05:48:58;;;;;;;;;;;;;;;21.31;60.74;100462.06;5099313;27;1284;-74
2021/05/14 05:51:43;;;;;;;;;;;;;;;21.33;60.43;100460.19;5130701;27;1350;-79
2021/05/14 05:54:29;;;;;;;;;;;;;;;21.31;60.42;100467.38;5139941;27;1063;-72
2021/05/14 05:57:14;;;;;;;;;;;;;;;21.29;60.32;100471.09;5138517;27;1963;-74
2021/05/14 06:00:02;;;;;;;;;;;;;;;21.31;60.55;100474.50;5131613;27;1353;-74
2021/05/14 06:02:47;;;;;;;;;;;;;;;21.33;60.72;100483.16;5132430;27;631;-75
2021/05/14 06:05:32;;;;;;;;;;;;;;;21.36;60.81;100485.59;5138707;27;1269;-77
2021/05/14 06:08:18;;;;;;;;;;;;;;;21.32;60.51;100481.47;5132833;27;643;-75
2021/05/14 06:11:03;;;;;;;;;;;;;;;21.27;60.85;100476.50;5130577;27;1279;-73
2021/05/14 06:13:48;;;;;;;;;;;;;;;21.24;60.54;100472.28;5114744;27;726;-77
2021/05/14 06:16:34;;;;;;;;;;;;;;;21.24;60.60;100476.72;5114860;27;1894;-77
2021/05/14 06:19:26;;;;;;;;;;;;;;;21.22;60.65;100478.63;5129850;27;710;-73
2021/05/14 06:22:12;;;;;;;;;;;;;;;21.23;60.72;100485.63;5130529;27;1279;-68
2021/05/14 06:24:57;;;;;;;;;;;;;;;21.23;61.14;100488.28;5129747;27;1477;-70
2021/05/14 06:27:42;;;;;;;;;;;;;;;21.22;61.14;100489.22;5122193;28;671;-70
2021/05/14 06:30:28;;;;;;;;;;;;;;;21.30;61.51;100494.00;5128492;28;1250;-71
2021/05/14 06:33:14;;;;;;;;;;;;;;;21.29;61.50;100502.88;5128338;28;659;-68
2021/05/14 06:36:01;;;;;;;;;;;;;;;21.30;61.20;100509.88;5112279;28;1968;-73
2021/05/14 06:38:47;;;;;;;;;;;;;;;21.29;61.50;100518.78;5132600;27;722;-73
2021/05/14 06:41:32;;;;;;;;;;;;;;;21.30;61.82;100523.13;5133684;27;1330;-74
2021/05/14 06:44:17;;;;;;;;;;;;;;;21.34;61.86;100514.03;5135246;27;1544;-75
2021/05/14 06:47:03;;;;;;;;;;;;;;;21.33;61.67;100510.53;5132808;27;1235;-76
2021/05/14 06:49:51;;;;;;;;;;;;;;;21.32;61.71;100521.22;5104098;27;1513;-74
2021/05/14 06:52:36;;;;;;;;;;;;;;;21.40;62.21;100538.25;5111849;28;976;-72
2021/05/14 06:55:22;;;;;;;;;;;;;;;21.40;61.66;100538.25;5097240;27;1534;-71
2021/05/14 06:58:07;;;;;;;;;;;;;;;21.37;61.99;100546.41;5107719;28;1910;-73
2021/05/14 07:00:53;;;;;;;;;;;;;;;21.35;61.99;100555.44;5096782;28;1281;-73
2021/05/14 07:03:38;;;;;;;;;;;;;;;21.33;62.48;100555.56;5095369;28;965;-75
2021/05/14 07:06:25;;;;;;;;;;;;;;;21.35;61.75;100558.09;5096028;28;1260;-70
2021/05/14 07:09:11;;;;;;;;;;;;;;;21.33;61.85;100554.69;5110898;28;1011;-70
2021/05/14 07:12:02;;;;;;;;;;;;;;;21.31;62.10;100553.97;5111389;28;1300;-71
2021/05/14 07:14:48;;;;;;;;;;;;;;;21.32;62.21;100558.31;5096305;28;1126;-71
2021/05/14 07:17:33;;;;;;;;;;;;;;;21.32;62.02;100559.16;5095085;28;1968;-70
2021/05/14 07:20:20;;;;;;;;;;;;;;;21.30;62.39;100561.06;5110369;28;1259;-73
2021/05/14 07:23:05;;;;;;;;;;;;;;;21.29;62.23;100563.81;5100213;27;976;-74
2021/05/14 07:25:51;;;;;;;;;;;;;;;21.29;62.18;100567.31;5131506;27;1370;-73
2021/05/14 07:28:36;;;;;;;;;;;;;;;21.29;62.51;100566.47;5106641;28;1039;-71
2021/05/14 07:31:24;;;;;;;;;;;;;;;21.29;62.33;100564.66;5129516;27;1372;-71
2021/05/14 07:34:10;;;;;;;;;;;;;;;21.29;62.33;100564.66;5117824;27;1046;-71
2021/05/14 07:37:08;;;;;;;;;;;;;;;21.29;62.33;100563.81;5111334;28;1981;-69
2021/05/14 07:39:58;;;;;;;;;;;;;;;21.29;62.51;100569.13;5111360;28;1243;-73
2021/05/14 07:42:43;;;;;;;;;;;;;;;21.30;62.15;100574.31;5110772;28;968;-71
2021/05/14 07:45:32;;;;;;;;;;;;;;;21.30;62.23;100576.13;5115852;27;1374;-71
2021/05/14 07:48:20;;;;;;;;;;;;;;;21.28;62.21;100573.56;5112973;27;1618;-69
2021/05/14 07:51:06;;;;;;;;;;;;;;;21.29;62.45;100590.31;5115865;27;1295;-69
2021/05/14 07:53:51;;;;;;;;;;;;;;;21.29;62.44;100579.72;5150897;27;1537;-67
2021/05/14 07:56:38;;;;;;;;;;;;;;;21.29;62.23;100585.00;5151271;27;1976;-68
2021/05/14 07:59:30;;;;;;;;;;;;;;;21.29;62.26;100579.72;5151213;27;983;-68
2021/05/14 08:02:16;;;;;;;;;;;;;;;21.32;61.85;100579.50;5132605;27;1516;-70
2021/05/14 08:05:01;;;;;;;;;;;;;;;21.31;62.12;100575.16;5146011;27;1299;-69
2021/05/14 08:08:02;;;;;;;;;;;;;;;21.30;62.42;100578.75;5148978;27;979;-68
2021/05/14 08:10:48;;;;;;;;;;;;;;;21.28;62.33;100580.69;5114418;27;1263;-72
2021/05/14 08:13:38;;;;;;;;;;;;;;;21.31;62.35;100577.81;5130244;27;948;-73
2021/05/14 08:16:24;;;;;;;;;;;;;;;21.30;62.55;100581.41;5130555;27;1897;-71
2021/05/14 08:19:12;;;;;;;;;;;;;;;21.29;62.28;100582.34;5130577;27;1504;-71
2021/05/14 08:21:57;;;;;;;;;;;;;;;21.28;62.19;100578.03;5131492;27;1287;-70
2021/05/14 08:24:42;;;;;;;;;;;;;;;21.29;62.36;100585.00;5130279;27;1064;-69
2021/05/14 08:27:28;;;;;;;;;;;;;;;21.28;62.61;100586.81;5115181;27;667;-69
2021/05/14 08:30:13;;;;;;;;;;;;;;;21.27;62.58;100589.56;5130347;27;1324;-69
2021/05/14 08:32:59;;;;;;;;;;;;;;;21.27;62.54;100597.53;5130266;27;1023;-68
2021/05/14 08:35:44;;;;;;;;;;;;;;;21.22;62.40;100596.03;5114290;27;1434;-68
2021/05/14 08:38:30;;;;;;;;;;;;;;;21.27;62.33;100608.13;5130200;27;1906;-71
2021/05/14 08:41:15;;;;;;;;;;;;;;;21.27;62.30;100603.69;5130112;27;1258;-67
2021/05/14 08:44:01;;;;;;;;;;;;;;;21.29;62.69;100608.84;5134559;27;1497;-71
2021/05/14 08:46:47;;;;;;;;;;;;;;;21.27;62.59;100602.81;5135277;27;1263;-71
2021/05/14 08:49:34;;;;;;;;;;;;;;;21.27;62.71;100602.81;5115820;27;1380;-70
2021/05/14 08:52:20;;;;;;;;;;;;;;;21.27;62.17;100608.97;5109339;28;1516;-70
2021/05/14 08:55:07;;;;;;;;;;;;;;;21.27;62.54;100616.91;5109521;28;1350;-68
2021/05/14 08:57:52;;;;;;;;;;;;;;;21.27;62.41;100616.91;5115635;27;1905;-69
2021/05/14 09:00:39;;;;;;;;;;;;;;;21.27;62.59;100626.66;5107693;28;1287;-69
2021/05/14 09:03:25;;;;;;;;;;;;;;;21.25;62.39;100632.91;5107686;28;1015;-71
2021/05/14 09:06:26;;;;;;;;;;;;;;;21.28;62.57;100647.75;5109529;28;1342;-68
2021/05/14 09:09:12;;;;;;;;;;;;;;;21.27;62.42;100647.84;5109848;28;1062;-68
2021/05/14 09:11:58;;;;;;;;;;;;;;;21.29;62.46;100643.28;5109205;28;1264;-65
2021/05/14 09:14:45;;;;;;;;;;;;;;;21.28;62.54;100636.31;5109043;28;1103;-66
2021/05/14 09:17:30;;;;;;;;;;;;;;;21.30;62.40;100648.50;5107680;28;1902;-67
2021/05/14 09:20:28;;;;;;;;;;;;;;;21.29;62.88;100656.53;5108440;28;1283;-69
2021/05/14 09:23:17;;;;;;;;;;;;;;;21.29;62.89;100653.88;5114191;27;951;-69
2021/05/14 09:26:02;;;;;;;;;;;;;;;21.29;62.95;100659.19;5128349;27;1277;-71
2021/05/14 09:28:48;;;;;;;;;;;;;;;21.24;63.35;100651.56;5129536;27;990;-71
2021/05/14 09:31:34;;;;;;;;;;;;;;;21.29;63.59;100664.50;5129651;27;1312;-71
2021/05/14 09:34:30;;;;;;;;;;;;;;;21.29;63.60;100667.13;5129721;27;1014;-74
2021/05/14 09:37:19;;;;;;;;;;;;;;;21.28;63.76;100674.22;5131285;27;1973;-72
2021/05/14 09:40:34;;;;;;;;;;;;;;;21.30;63.71;100687.38;5128506;27;1275;-71
2021/05/14 09:43:24;;;;;;;;;;;;;;;21.29;63.79;100683.03;5123344;27;1116;-70
2021/05/14 09:46:23;;;;;;;;;;;;;;;21.27;64.16;100688.44;5129069;27;1271;-71
2021/05/14 09:49:10;;;;;;;;;;;;;;;21.29;63.84;100701.56;5134905;27;1413;-72
2021/05/14 09:52:03;;;;;;;;;;;;;;;21.28;64.35;100706.03;5128075;27;1567;-71
2021/05/14 09:54:55;;;;;;;;;;;;;;;21.28;64.25;100700.72;5131570;27;1330;-71
2021/05/14 09:57:42;;;;;;;;;;;;;;;21.29;64.39;100717.47;5148049;27;1958;-70
2021/05/14 10:00:27;;;;;;;;;;;;;;;21.28;64.44;100723.75;5112874;27;1342;-70
2021/05/14 10:03:17;;;;;;;;;;;;;;;21.29;64.43;100731.56;5134602;27;956;-73
2021/05/14 10:06:03;;;;;;;;;;;;;;;21.30;64.33;100729.78;5113599;27;1282;-77
2021/05/14 10:08:54;;;;;;;;;;;;;;;21.29;64.36;100738.66;5123884;27;984;-76
2021/05/14 10:11:40;;;;;;;;;;;;;;;21.29;64.30;100749.25;5132506;27;1283;-74
2021/05/14 10:14:26;;;;;;;;;;;;;;;21.30;64.62;100748.31;5148986;27;693;-72
2021/05/14 10:17:11;;;;;;;;;;;;;;;21.31;64.48;100747.38;5133466;27;1902;-69
2021/05/14 10:19:58;;;;;;;;;;;;;;;21.31;64.50;100748.22;5128461;27;1345;-68
2021/05/14 10:22:44;;;;;;;;;;;;;;;21.31;64.78;100736.78;5098387;27;976;-67
2021/05/14 10:25:39;;;;;;;;;;;;;;;21.29;64.89;100733.38;5128411;27;1259;-68
2021/05/14 10:28:27;;;;;;;;;;;;;;;21.28;64.56;100729.03;5135723;27;992;-68
2021/05/14 10:31:22;;;;;;;;;;;;;;;21.28;64.63;100737.81;5133588;27;1374;-69
2021/05/14 10:34:15;;;;;;;;;;;;;;;21.31;64.68;100748.22;5135367;27;1038;-70
2021/05/14 10:37:01;;;;;;;;;;;;;;;21.32;64.93;100749.91;5112892;28;1976;-72
2021/05/14 10:39:47;;;;;;;;;;;;;;;21.35;65.53;100756.81;5128028;27;1133;-69
2021/05/14 10:42:38;;;;;;;;;;;;;;;21.37;65.56;100760.22;5112429;28;690;-71
2021/05/14 10:45:33;;;;;;;;;;;;;;;21.03;60.91;100759.78;5127981;28;1265;-71
2021/05/14 10:48:19;;;;;;;;;;;;;;;20.83;59.01;100762.03;5135623;27;1509;-70
2021/05/14 10:51:08;;;;;;;;;;;;;;;20.69;55.71;100760.28;5127073;28;1255;-69
2021/05/14 10:53:53;;;;;;;;;;;;;;;20.73;54.91;100762.63;5126801;27;818;-70
2021/05/14 10:56:48;;;;;;;;;;;;;;;20.72;53.72;100760.09;5112065;28;1333;-70
2021/05/14 10:59:37;;;;;;;;;;;;;;;20.67;54.92;100756.91;5127405;27;1023;-69
2021/05/14 11:02:29;;;;;;;;;;;;;;;20.59;52.81;100759.19;5127921;28;667;-68
2021/05/14 11:05:27;;;;;;;;;;;;;;;20.53;51.75;100751.63;5145182;27;1344;-70
2021/05/14 11:08:31;;;;;;;;;;;;;;;20.47;52.09;100765.25;5142812;27;971;-67
2021/05/14 11:11:20;;;;;;;;;;;;;;;20.52;51.36;100757.84;5127722;28;1240;-70
2021/05/14 11:14:13;;;;;;;;;;;;;;;20.48;51.80;100767.81;5127043;28;687;-72
2021/05/14 11:16:58;;;;;;;;;;;;;;;20.28;51.79;100770.00;5136531;27;1244;-72
2021/05/14 11:19:46;;;;;;;;;;;;;;;20.40;52.06;100767.44;5138911;27;1140;-72
2021/05/14 11:22:36;;;;;;;;;;;;;;;20.48;50.62;100766.97;5148925;27;678;-71
2021/05/14 11:25:22;;;;;;;;;;;;;;;20.58;50.72;100762.75;5131790;27;1254;-72
2021/05/14 11:28:08;;;;;;;;;;;;;;;20.51;51.37;100758.81;5131743;27;639;-71
2021/05/14 11:30:54;;;;;;;;;;;;;;;20.57;51.75;100739.91;5131515;27;1275;-70
2021/05/14 11:33:50;;;;;;;;;;;;;;;20.52;51.98;100757.84;5131456;27;742;-71
2021/05/14 11:36:47;;;;;;;;;;;;;;;20.51;52.39;100764.13;5131752;27;1281;-71
2021/05/14 11:39:34;;;;;;;;;;;;;;;20.45;51.92;100752.13;5131937;27;695;-72
2021/05/14 11:42:24;;;;;;;;;;;;;;;20.59;51.55;100743.28;5140279;27;1588;-72
2021/05/14 11:45:31;;;;;;;;;;;;;;;20.61;51.64;100741.38;5144386;27;1257;-69
2021/05/14 11:48:19;;;;;;;;;;;;;;;20.60;51.64;100747.66;5150817;27;666;-72
2021/05/14 11:51:04;;;;;;;;;;;;;;;20.53;51.65;100747.19;5130052;27;1275;-72
2021/05/14 11:53:49;;;;;;;;;;;;;;;20.54;51.28;100743.59;5131235;27;710;-72
2021/05/14 11:56:35;;;;;;;;;;;;;;;20.68;50.99;100734.75;5131237;27;1259;-70
2021/05/14 11:59:21;;;;;;;;;;;;;;;20.61;51.51;100731.66;5130966;27;1960;-70
2021/05/14 12:02:06;;;;;;;;;;;;;;;20.66;50.87;100724.28;5130398;27;1252;-70
2021/05/14 12:04:52;;;;;;;;;;;;;;;20.76;51.54;100723.69;5131482;27;944;-69
2021/05/14 12:07:39;;;;;;;;;;;;;;;20.89;51.12;100729.84;5131739;27;657;-70
2021/05/14 12:10:24;;;;;;;;;;;;;;;20.91;51.30;100734.13;5135354;27;1533;-68
2021/05/14 12:13:12;;;;;;;;;;;;;;;21.01;51.13;100724.59;5130594;27;722;-65
2021/05/14 12:15:59;;;;;;;;;;;;;;;21.14;51.51;100729.97;5114651;27;1365;-66
2021/05/14 12:18:49;;;;;;;;;;;;;;;21.08;50.32;100725.94;5114635;27;1902;-66
2021/05/14 12:21:36;;;;;;;;;;;;;;;21.19;50.67;100723.41;5130296;27;1322;-69
2021/05/14 12:24:22;;;;;;;;;;;;;;;21.13;50.66;100721.16;5115067;27;1173;-69
2021/05/14 12:27:10;;;;;;;;;;;;;;;21.14;50.45;100709.63;5128308;27;2156;-71
2021/05/14 12:29:59;;;;;;;;;;;;;;;21.18;51.03;100708.47;5117324;27;1264;-69
2021/05/14 12:32:55;;;;;;;;;;;;;;;21.17;52.18;100696.16;5136130;27;698;-65
2021/05/14 12:35:53;;;;;;;;;;;;;;;21.16;52.11;100691.81;5135556;27;1385;-67
2021/05/14 12:38:46;;;;;;;;;;;;;;;21.21;52.96;100689.72;5130161;27;1980;-69
2021/05/14 12:41:33;;;;;;;;;;;;;;;21.26;52.78;100692.03;5132741;27;1268;-68
2021/05/14 12:44:23;;;;;;;;;;;;;;;21.27;52.51;100679.66;5137841;27;886;-68
2021/05/14 12:47:09;;;;;;;;;;;;;;;21.23;53.14;100676.34;5129163;27;1299;-68
2021/05/14 12:49:56;;;;;;;;;;;;;;;21.24;53.35;100673.63;5121307;27;1312;-67
2021/05/14 12:52:46;;;;;;;;;;;;;;;21.25;53.79;100666.50;5117068;27;1136;-68
2021/05/14 12:55:38;;;;;;;;;;;;;;;21.35;52.82;100679.97;5110635;27;1306;-68
2021/05/14 12:58:23;;;;;;;;;;;;;;;21.32;53.68;100685.47;5112658;27;1965;-68
2021/05/14 13:01:09;;;;;;;;;;;;;;;21.33;53.60;100685.38;5110663;27;1243;-71
2021/05/14 13:04:04;;;;;;;;;;;;;;;21.36;52.55;100684.31;5115330;27;1236;-72
2021/05/14 13:06:59;;;;;;;;;;;;;;;21.40;53.37;100693.75;5115443;27;1263;-69
2021/05/14 13:09:49;;;;;;;;;;;;;;;21.39;54.29;100687.59;5108775;27;1312;-68
2021/05/14 13:12:34;;;;;;;;;;;;;;;21.38;54.14;100690.34;5120703;27;911;-68
2021/05/14 13:15:20;;;;;;;;;;;;;;;21.38;54.11;100690.34;5110746;27;1353;-69
2021/05/14 13:18:06;;;;;;;;;;;;;;;21.48;53.55;100699.38;5126077;27;1957;-68
2021/05/14 13:20:52;;;;;;;;;;;;;;;21.51;53.36;100689.41;5098314;28;1454;-66
2021/05/14 13:23:43;;;;;;;;;;;;;;;21.47;54.00;100679.13;5110887;27;1280;-68
2021/05/14 13:26:28;;;;;;;;;;;;;;;21.45;54.00;100688.97;5123331;27;1223;-70
2021/05/14 13:29:14;;;;;;;;;;;;;;;21.44;52.97;100684.63;5110702;27;1172;-68
2021/05/14 13:32:00;;;;;;;;;;;;;;;21.43;52.82;100693.56;5091718;28;1334;-68
2021/05/14 13:34:47;;;;;;;;;;;;;;;21.43;52.43;100691.72;5111462;27;1158;-69
2021/05/14 13:37:33;;;;;;;;;;;;;;;21.45;54.21;100708.38;5110131;27;1223;-68
2021/05/14 13:40:18;;;;;;;;;;;;;;;21.45;52.81;100704.88;5116436;27;1276;-69
2021/05/14 13:43:03;;;;;;;;;;;;;;;21.43;52.10;100691.72;5112746;27;1160;-69
2021/05/14 13:45:49;;;;;;;;;;;;;;;21.41;51.93;100700.75;5111642;27;1233;-69
2021/05/14 13:48:34;;;;;;;;;;;;;;;21.39;51.78;100687.59;5121231;27;1164;-69
2021/05/14 13:51:20;;;;;;;;;;;;;;;21.40;53.09;100680.50;5143922;27;1345;-67
2021/05/14 13:54:05;;;;;;;;;;;;;;;21.41;52.32;100677.75;5134022;27;1235;-69
2021/05/14 13:56:51;;;;;;;;;;;;;;;21.41;52.51;100679.53;5118640;27;1240;-68
2021/05/14 13:59:37;;;;;;;;;;;;;;;21.40;52.92;100680.50;5144175;27;1937;-71
2021/05/14 14:02:23;;;;;;;;;;;;;;;21.41;53.44;100672.44;5134159;27;1077;-68
2021/05/14 14:05:10;;;;;;;;;;;;;;;21.40;53.91;100662.78;5128828;27;1329;-68
2021/05/14 14:07:56;;;;;;;;;;;;;;;21.39;54.55;100666.41;5127848;27;895;-66
2021/05/14 14:10:41;;;;;;;;;;;;;;;21.41;54.69;100663.63;5123793;27;1270;-65
2021/05/14 14:13:27;;;;;;;;;;;;;;;21.42;55.05;100668.00;5130672;27;1112;-67
2021/05/14 14:16:13;;;;;;;;;;;;;;;21.41;55.12;100663.63;5124217;27;1239;-65
2021/05/14 14:18:59;;;;;;;;;;;;;;;21.42;55.58;100668.00;5141277;27;1971;-66
2021/05/14 14:21:45;;;;;;;;;;;;;;;21.56;54.64;100674.03;5126659;27;1695;-64
2021/05/14 14:24:30;;;;;;;;;;;;;;;21.62;54.62;100663.00;5146867;27;1564;-67
2021/05/14 14:27:18;;;;;;;;;;;;;;;21.55;55.80;100656.41;5146966;27;1385;-66
2021/05/14 14:30:06;;;;;;;;;;;;;;;21.53;56.78;100646.88;5131567;27;1476;-67
2021/05/14 14:32:54;;;;;;;;;;;;;;;21.52;57.10;100650.50;5134138;27;1198;-66
2021/05/14 14:35:40;;;;;;;;;;;;;;;21.53;56.96;100647.75;5145228;27;1361;-66